sensor_id;sensor_type;location;lat;lon;timestamp;P1;durP1;ratioP1;P2;durP2;ratioP2
1004;SDS011;491;53.480;10.174;2023-07-20T00:01:22;3.07;;;0.70;;
1004;SDS011;491;53.480;10.174;2023-07-20T00:03:47;3.63;;;0.77;;
1004;SDS011;491;53.480;10.174;2023-07-20T00:06:20;1.80;;;0.90;;
1004;SDS011;491;53.480;10.174;2023-07-20T00:08:52;3.73;;;0.90;;
1004;SDS011;491;53.480;10.174;2023-07-20T00:11:18;3.47;;;2.67;;
1004;SDS011;491;53.480;10.174;2023-07-20T00:13:44;2.50;;;0.73;;
1004;SDS011;491;53.480;10.174;2023-07-20T00:16:09;3.87;;;1.00;;
1004;SDS011;491;53.480;10.174;2023-07-20T00:18:35;1.30;;;0.70;;
1004;SDS011;491;53.480;10.174;2023-07-20T00:21:00;2.63;;;1.00;;
1004;SDS011;491;53.480;10.174;2023-07-20T00:23:26;2.23;;;0.73;;
1004;SDS011;491;53.480;10.174;2023-07-20T00:25:52;1.57;;;0.70;;
1004;SDS011;491;53.480;10.174;2023-07-20T00:28:18;1.63;;;1.10;;
1004;SDS011;491;53.480;10.174;2023-07-20T00:30:43;2.40;;;0.73;;
1004;SDS011;491;53.480;10.174;2023-07-20T00:33:10;2.33;;;1.30;;
1004;SDS011;491;53.480;10.174;2023-07-20T00:35:39;3.47;;;1.17;;
1004;SDS011;491;53.480;10.174;2023-07-20T00:38:05;3.50;;;1.50;;
1004;SDS011;491;53.480;10.174;2023-07-20T00:40:39;1.83;;;1.17;;
1004;SDS011;491;53.480;10.174;2023-07-20T00:43:06;2.97;;;1.47;;
1004;SDS011;491;53.480;10.174;2023-07-20T00:45:32;1.97;;;1.43;;
1004;SDS011;491;53.480;10.174;2023-07-20T00:47:58;3.33;;;1.33;;
1004;SDS011;491;53.480;10.174;2023-07-20T00:50:26;2.47;;;1.60;;
1004;SDS011;491;53.480;10.174;2023-07-20T00:52:52;1.90;;;0.97;;
1004;SDS011;491;53.480;10.174;2023-07-20T00:55:18;2.10;;;0.90;;
1004;SDS011;491;53.480;10.174;2023-07-20T00:57:44;3.80;;;1.73;;
1004;SDS011;491;53.480;10.174;2023-07-20T01:00:10;3.80;;;1.50;;
1004;SDS011;491;53.480;10.174;2023-07-20T01:02:36;3.80;;;1.37;;
1004;SDS011;491;53.480;10.174;2023-07-20T01:05:01;2.47;;;0.80;;
1004;SDS011;491;53.480;10.174;2023-07-20T01:07:31;1.70;;;0.80;;
1004;SDS011;491;53.480;10.174;2023-07-20T01:10:10;4.43;;;0.87;;
1004;SDS011;491;53.480;10.174;2023-07-20T01:12:43;1.70;;;1.20;;
1004;SDS011;491;53.480;10.174;2023-07-20T01:15:12;3.70;;;1.50;;
1004;SDS011;491;53.480;10.174;2023-07-20T01:17:38;1.57;;;0.77;;
1004;SDS011;491;53.480;10.174;2023-07-20T01:20:05;2.90;;;0.80;;
1004;SDS011;491;53.480;10.174;2023-07-20T01:33:35;2.97;;;0.97;;
1004;SDS011;491;53.480;10.174;2023-07-20T01:36:01;4.40;;;0.83;;
1004;SDS011;491;53.480;10.174;2023-07-20T01:38:27;5.27;;;1.00;;
1004;SDS011;491;53.480;10.174;2023-07-20T01:40:53;2.80;;;0.90;;
1004;SDS011;491;53.480;10.174;2023-07-20T01:43:19;2.77;;;1.00;;
1004;SDS011;491;53.480;10.174;2023-07-20T01:45:45;1.70;;;0.93;;
1004;SDS011;491;53.480;10.174;2023-07-20T01:48:10;1.93;;;1.00;;
1004;SDS011;491;53.480;10.174;2023-07-20T01:50:36;1.30;;;0.87;;
1004;SDS011;491;53.480;10.174;2023-07-20T01:53:02;1.87;;;1.03;;
1004;SDS011;491;53.480;10.174;2023-07-20T01:55:27;1.53;;;0.83;;
1004;SDS011;491;53.480;10.174;2023-07-20T01:57:54;3.80;;;1.47;;
1004;SDS011;491;53.480;10.174;2023-07-20T02:00:20;1.57;;;0.97;;
1004;SDS011;491;53.480;10.174;2023-07-20T02:02:48;1.57;;;1.03;;
1004;SDS011;491;53.480;10.174;2023-07-20T02:05:14;2.30;;;1.10;;
1004;SDS011;491;53.480;10.174;2023-07-20T02:07:40;1.23;;;0.90;;
1004;SDS011;491;53.480;10.174;2023-07-20T02:10:05;1.70;;;1.00;;
1004;SDS011;491;53.480;10.174;2023-07-20T02:12:31;2.20;;;0.67;;
1004;SDS011;491;53.480;10.174;2023-07-20T02:14:57;2.00;;;0.73;;
1004;SDS011;491;53.480;10.174;2023-07-20T02:17:22;1.80;;;0.80;;
1004;SDS011;491;53.480;10.174;2023-07-20T02:19:50;1.33;;;0.73;;
1004;SDS011;491;53.480;10.174;2023-07-20T02:22:17;1.23;;;0.60;;
1004;SDS011;491;53.480;10.174;2023-07-20T02:24:42;1.50;;;0.83;;
1004;SDS011;491;53.480;10.174;2023-07-20T02:27:08;1.20;;;0.90;;
1004;SDS011;491;53.480;10.174;2023-07-20T02:29:33;1.97;;;0.90;;
1004;SDS011;491;53.480;10.174;2023-07-20T02:31:59;1.97;;;1.13;;
1004;SDS011;491;53.480;10.174;2023-07-20T02:34:24;2.80;;;1.50;;
1004;SDS011;491;53.480;10.174;2023-07-20T02:36:50;5.90;;;2.30;;
1004;SDS011;491;53.480;10.174;2023-07-20T02:39:15;3.73;;;2.10;;
1004;SDS011;491;53.480;10.174;2023-07-20T02:41:41;3.47;;;2.40;;
1004;SDS011;491;53.480;10.174;2023-07-20T02:44:07;4.47;;;2.70;;
1004;SDS011;491;53.480;10.174;2023-07-20T02:46:32;3.10;;;2.80;;
1004;SDS011;491;53.480;10.174;2023-07-20T02:48:59;4.10;;;2.67;;
1004;SDS011;491;53.480;10.174;2023-07-20T02:51:24;3.83;;;2.67;;
1004;SDS011;491;53.480;10.174;2023-07-20T02:53:50;4.33;;;2.67;;
1004;SDS011;491;53.480;10.174;2023-07-20T02:56:15;3.27;;;2.23;;
1004;SDS011;491;53.480;10.174;2023-07-20T02:58:41;5.93;;;3.40;;
1004;SDS011;491;53.480;10.174;2023-07-20T03:01:13;2.63;;;2.27;;
1004;SDS011;491;53.480;10.174;2023-07-20T03:03:40;2.23;;;1.90;;
1004;SDS011;491;53.480;10.174;2023-07-20T03:06:11;3.90;;;2.03;;
1004;SDS011;491;53.480;10.174;2023-07-20T03:08:37;3.90;;;2.07;;
1004;SDS011;491;53.480;10.174;2023-07-20T03:11:03;4.93;;;1.60;;
1004;SDS011;491;53.480;10.174;2023-07-20T03:13:28;4.00;;;2.23;;
1004;SDS011;491;53.480;10.174;2023-07-20T03:15:54;2.47;;;1.93;;
1004;SDS011;491;53.480;10.174;2023-07-20T03:18:19;5.10;;;1.70;;
1004;SDS011;491;53.480;10.174;2023-07-20T03:20:45;3.83;;;2.20;;
1004;SDS011;491;53.480;10.174;2023-07-20T03:23:11;2.60;;;1.50;;
1004;SDS011;491;53.480;10.174;2023-07-20T03:25:37;2.27;;;1.90;;
1004;SDS011;491;53.480;10.174;2023-07-20T03:28:03;4.27;;;1.40;;
1004;SDS011;491;53.480;10.174;2023-07-20T03:30:29;2.53;;;1.67;;
1004;SDS011;491;53.480;10.174;2023-07-20T03:32:54;2.70;;;1.77;;
1004;SDS011;491;53.480;10.174;2023-07-20T03:35:20;3.00;;;1.83;;
1004;SDS011;491;53.480;10.174;2023-07-20T03:37:45;3.10;;;2.50;;
1004;SDS011;491;53.480;10.174;2023-07-20T03:40:11;3.30;;;1.60;;
1004;SDS011;491;53.480;10.174;2023-07-20T03:42:36;3.27;;;1.77;;
1004;SDS011;491;53.480;10.174;2023-07-20T03:45:02;1.90;;;1.07;;
1004;SDS011;491;53.480;10.174;2023-07-20T03:47:29;1.90;;;1.70;;
1004;SDS011;491;53.480;10.174;2023-07-20T03:49:55;2.13;;;1.80;;
1004;SDS011;491;53.480;10.174;2023-07-20T03:52:20;3.00;;;1.23;;
1004;SDS011;491;53.480;10.174;2023-07-20T03:54:46;2.40;;;1.20;;
1004;SDS011;491;53.480;10.174;2023-07-20T03:57:11;2.43;;;1.20;;
1004;SDS011;491;53.480;10.174;2023-07-20T03:59:37;1.70;;;1.23;;
1004;SDS011;491;53.480;10.174;2023-07-20T04:02:03;2.20;;;1.60;;
1004;SDS011;491;53.480;10.174;2023-07-20T04:04:30;3.05;;;1.80;;
1004;SDS011;491;53.480;10.174;2023-07-20T04:06:56;2.67;;;1.93;;
1004;SDS011;491;53.480;10.174;2023-07-20T04:09:21;2.83;;;2.13;;
1004;SDS011;491;53.480;10.174;2023-07-20T04:11:47;3.20;;;1.90;;
1004;SDS011;491;53.480;10.174;2023-07-20T04:14:12;2.27;;;1.57;;
1004;SDS011;491;53.480;10.174;2023-07-20T04:16:38;1.73;;;1.13;;
1004;SDS011;491;53.480;10.174;2023-07-20T04:19:03;2.87;;;1.80;;
1004;SDS011;491;53.480;10.174;2023-07-20T04:21:29;2.93;;;1.20;;
1004;SDS011;491;53.480;10.174;2023-07-20T04:23:54;1.47;;;0.93;;
1004;SDS011;491;53.480;10.174;2023-07-20T04:26:20;1.90;;;0.87;;
1004;SDS011;491;53.480;10.174;2023-07-20T04:28:45;1.47;;;1.17;;
1004;SDS011;491;53.480;10.174;2023-07-20T04:31:12;3.60;;;1.10;;
1004;SDS011;491;53.480;10.174;2023-07-20T04:33:39;2.30;;;1.10;;
1004;SDS011;491;53.480;10.174;2023-07-20T04:36:04;3.73;;;2.13;;
1004;SDS011;491;53.480;10.174;2023-07-20T04:38:30;1.93;;;1.70;;
1004;SDS011;491;53.480;10.174;2023-07-20T04:40:56;3.37;;;1.47;;
1004;SDS011;491;53.480;10.174;2023-07-20T04:43:21;3.50;;;1.30;;
1004;SDS011;491;53.480;10.174;2023-07-20T04:45:47;2.50;;;1.30;;
1004;SDS011;491;53.480;10.174;2023-07-20T04:48:13;1.77;;;0.87;;
1004;SDS011;491;53.480;10.174;2023-07-20T04:50:40;2.40;;;1.27;;
1004;SDS011;491;53.480;10.174;2023-07-20T04:53:08;3.33;;;1.97;;
1004;SDS011;491;53.480;10.174;2023-07-20T04:55:35;3.10;;;2.00;;
1004;SDS011;491;53.480;10.174;2023-07-20T04:58:01;2.63;;;2.33;;
1004;SDS011;491;53.480;10.174;2023-07-20T05:00:28;1.73;;;1.17;;
1004;SDS011;491;53.480;10.174;2023-07-20T05:02:54;1.40;;;0.80;;
1004;SDS011;491;53.480;10.174;2023-07-20T05:05:20;3.57;;;1.73;;
1004;SDS011;491;53.480;10.174;2023-07-20T05:07:46;1.60;;;1.20;;
1004;SDS011;491;53.480;10.174;2023-07-20T05:10:11;3.03;;;1.40;;
1004;SDS011;491;53.480;10.174;2023-07-20T05:12:37;2.47;;;1.00;;
1004;SDS011;491;53.480;10.174;2023-07-20T05:15:02;2.23;;;1.00;;
1004;SDS011;491;53.480;10.174;2023-07-20T05:17:28;1.77;;;0.90;;
1004;SDS011;491;53.480;10.174;2023-07-20T05:19:54;1.80;;;1.03;;
1004;SDS011;491;53.480;10.174;2023-07-20T05:22:19;3.70;;;1.13;;
1004;SDS011;491;53.480;10.174;2023-07-20T05:24:45;1.80;;;0.90;;
1004;SDS011;491;53.480;10.174;2023-07-20T05:27:10;1.93;;;0.70;;
1004;SDS011;491;53.480;10.174;2023-07-20T05:29:36;1.57;;;0.40;;
1004;SDS011;491;53.480;10.174;2023-07-20T05:32:01;1.80;;;1.20;;
1004;SDS011;491;53.480;10.174;2023-07-20T05:34:27;1.63;;;0.50;;
1004;SDS011;491;53.480;10.174;2023-07-20T05:36:53;1.40;;;0.70;;
1004;SDS011;491;53.480;10.174;2023-07-20T05:39:19;2.37;;;0.83;;
1004;SDS011;491;53.480;10.174;2023-07-20T05:41:45;2.27;;;1.13;;
1004;SDS011;491;53.480;10.174;2023-07-20T05:44:10;2.33;;;0.87;;
1004;SDS011;491;53.480;10.174;2023-07-20T05:46:36;2.77;;;0.80;;
1004;SDS011;491;53.480;10.174;2023-07-20T05:49:01;2.47;;;0.90;;
1004;SDS011;491;53.480;10.174;2023-07-20T05:51:27;2.97;;;1.07;;
1004;SDS011;491;53.480;10.174;2023-07-20T05:53:52;1.03;;;0.60;;
1004;SDS011;491;53.480;10.174;2023-07-20T05:56:18;1.60;;;1.10;;
1004;SDS011;491;53.480;10.174;2023-07-20T05:58:43;1.37;;;0.70;;
1004;SDS011;491;53.480;10.174;2023-07-20T06:01:09;3.53;;;1.33;;
1004;SDS011;491;53.480;10.174;2023-07-20T06:03:34;1.93;;;1.40;;
1004;SDS011;491;53.480;10.174;2023-07-20T06:06:00;2.43;;;1.30;;
1004;SDS011;491;53.480;10.174;2023-07-20T06:08:27;4.07;;;1.10;;
1004;SDS011;491;53.480;10.174;2023-07-20T06:10:53;3.03;;;1.80;;
1004;SDS011;491;53.480;10.174;2023-07-20T06:13:18;2.23;;;1.10;;
1004;SDS011;491;53.480;10.174;2023-07-20T06:15:44;2.17;;;1.30;;
1004;SDS011;491;53.480;10.174;2023-07-20T06:18:09;1.87;;;1.00;;
1004;SDS011;491;53.480;10.174;2023-07-20T06:20:35;4.83;;;1.77;;
1004;SDS011;491;53.480;10.174;2023-07-20T06:23:00;1.43;;;1.33;;
1004;SDS011;491;53.480;10.174;2023-07-20T06:25:26;1.63;;;1.00;;
1004;SDS011;491;53.480;10.174;2023-07-20T06:27:51;2.60;;;1.10;;
1004;SDS011;491;53.480;10.174;2023-07-20T06:30:17;2.97;;;1.07;;
1004;SDS011;491;53.480;10.174;2023-07-20T06:32:43;4.67;;;1.07;;
1004;SDS011;491;53.480;10.174;2023-07-20T06:35:08;1.50;;;0.97;;
1004;SDS011;491;53.480;10.174;2023-07-20T06:37:34;2.10;;;1.00;;
1004;SDS011;491;53.480;10.174;2023-07-20T06:40:00;1.60;;;0.60;;
1004;SDS011;491;53.480;10.174;2023-07-20T06:42:28;2.97;;;1.30;;
1004;SDS011;491;53.480;10.174;2023-07-20T06:44:53;1.20;;;0.40;;
1004;SDS011;491;53.480;10.174;2023-07-20T06:47:19;3.43;;;0.93;;
1004;SDS011;491;53.480;10.174;2023-07-20T06:49:44;6.47;;;0.90;;
1004;SDS011;491;53.480;10.174;2023-07-20T06:52:09;4.20;;;0.93;;
1004;SDS011;491;53.480;10.174;2023-07-20T06:54:35;1.93;;;0.40;;
1004;SDS011;491;53.480;10.174;2023-07-20T06:57:00;1.13;;;0.40;;
1004;SDS011;491;53.480;10.174;2023-07-20T06:59:26;1.87;;;0.40;;
1004;SDS011;491;53.480;10.174;2023-07-20T07:01:51;1.43;;;0.30;;
1004;SDS011;491;53.480;10.174;2023-07-20T07:04:17;1.83;;;1.00;;
1004;SDS011;491;53.480;10.174;2023-07-20T07:06:42;1.67;;;0.40;;
1004;SDS011;491;53.480;10.174;2023-07-20T07:09:09;1.73;;;0.30;;
1004;SDS011;491;53.480;10.174;2023-07-20T07:11:34;2.77;;;0.30;;
1004;SDS011;491;53.480;10.174;2023-07-20T07:14:00;1.83;;;0.60;;
1004;SDS011;491;53.480;10.174;2023-07-20T07:16:25;3.40;;;0.43;;
1004;SDS011;491;53.480;10.174;2023-07-20T07:18:51;1.07;;;0.20;;
1004;SDS011;491;53.480;10.174;2023-07-20T07:21:16;1.43;;;0.23;;
1004;SDS011;491;53.480;10.174;2023-07-20T07:23:43;2.90;;;0.20;;
1004;SDS011;491;53.480;10.174;2023-07-20T07:26:09;1.20;;;0.23;;
1004;SDS011;491;53.480;10.174;2023-07-20T07:28:34;2.30;;;0.47;;
1004;SDS011;491;53.480;10.174;2023-07-20T07:31:06;1.53;;;0.30;;
1004;SDS011;491;53.480;10.174;2023-07-20T07:33:35;2.03;;;0.40;;
1004;SDS011;491;53.480;10.174;2023-07-20T07:36:00;3.77;;;0.33;;
1004;SDS011;491;53.480;10.174;2023-07-20T07:38:26;0.97;;;0.20;;
1004;SDS011;491;53.480;10.174;2023-07-20T07:40:51;2.87;;;0.50;;
1004;SDS011;491;53.480;10.174;2023-07-20T07:43:17;0.60;;;0.20;;
1004;SDS011;491;53.480;10.174;2023-07-20T07:45:42;1.33;;;0.20;;
1004;SDS011;491;53.480;10.174;2023-07-20T07:48:08;1.10;;;0.40;;
1004;SDS011;491;53.480;10.174;2023-07-20T07:50:36;2.00;;;0.40;;
1004;SDS011;491;53.480;10.174;2023-07-20T07:53:02;2.73;;;0.30;;
1004;SDS011;491;53.480;10.174;2023-07-20T07:55:28;1.73;;;0.30;;
1004;SDS011;491;53.480;10.174;2023-07-20T07:57:53;1.30;;;0.30;;
1004;SDS011;491;53.480;10.174;2023-07-20T08:00:19;1.17;;;0.50;;
1004;SDS011;491;53.480;10.174;2023-07-20T08:02:45;1.73;;;0.30;;
1004;SDS011;491;53.480;10.174;2023-07-20T08:05:14;2.50;;;0.40;;
1004;SDS011;491;53.480;10.174;2023-07-20T08:07:39;0.97;;;0.30;;
1004;SDS011;491;53.480;10.174;2023-07-20T08:10:08;1.00;;;0.20;;
1004;SDS011;491;53.480;10.174;2023-07-20T08:12:34;1.77;;;0.30;;
1004;SDS011;491;53.480;10.174;2023-07-20T08:15:00;2.53;;;0.50;;
1004;SDS011;491;53.480;10.174;2023-07-20T08:17:25;2.10;;;0.57;;
1004;SDS011;491;53.480;10.174;2023-07-20T08:19:51;3.80;;;2.00;;
1004;SDS011;491;53.480;10.174;2023-07-20T08:22:16;2.00;;;0.40;;
1004;SDS011;491;53.480;10.174;2023-07-20T08:24:42;3.90;;;0.60;;
1004;SDS011;491;53.480;10.174;2023-07-20T08:27:09;2.03;;;0.40;;
1004;SDS011;491;53.480;10.174;2023-07-20T08:29:35;3.23;;;0.60;;
1004;SDS011;491;53.480;10.174;2023-07-20T08:32:01;2.87;;;0.50;;
1004;SDS011;491;53.480;10.174;2023-07-20T08:34:27;1.97;;;0.60;;
1004;SDS011;491;53.480;10.174;2023-07-20T08:36:52;2.10;;;0.90;;
1004;SDS011;491;53.480;10.174;2023-07-20T08:39:18;3.80;;;0.60;;
1004;SDS011;491;53.480;10.174;2023-07-20T08:41:43;1.70;;;0.30;;
1004;SDS011;491;53.480;10.174;2023-07-20T08:44:10;2.30;;;0.60;;
1004;SDS011;491;53.480;10.174;2023-07-20T08:46:36;1.27;;;0.40;;
1004;SDS011;491;53.480;10.174;2023-07-20T08:49:03;2.03;;;0.50;;
1004;SDS011;491;53.480;10.174;2023-07-20T08:51:30;1.63;;;0.60;;
1004;SDS011;491;53.480;10.174;2023-07-20T08:53:57;1.90;;;0.40;;
1004;SDS011;491;53.480;10.174;2023-07-20T08:56:24;1.70;;;1.00;;
1004;SDS011;491;53.480;10.174;2023-07-20T08:58:51;4.70;;;0.73;;
1004;SDS011;491;53.480;10.174;2023-07-20T09:01:19;1.90;;;0.57;;
1004;SDS011;491;53.480;10.174;2023-07-20T09:03:45;4.43;;;0.83;;
1004;SDS011;491;53.480;10.174;2023-07-20T09:06:11;4.13;;;1.10;;
1004;SDS011;491;53.480;10.174;2023-07-20T09:08:40;1.87;;;0.70;;
1004;SDS011;491;53.480;10.174;2023-07-20T09:11:06;3.90;;;1.00;;
1004;SDS011;491;53.480;10.174;2023-07-20T09:13:32;3.90;;;1.70;;
1004;SDS011;491;53.480;10.174;2023-07-20T09:15:58;2.50;;;1.07;;
1004;SDS011;491;53.480;10.174;2023-07-20T09:18:25;1.20;;;0.73;;
1004;SDS011;491;53.480;10.174;2023-07-20T09:20:51;2.80;;;1.10;;
1004;SDS011;491;53.480;10.174;2023-07-20T09:23:17;2.47;;;0.77;;
1004;SDS011;491;53.480;10.174;2023-07-20T09:25:42;2.30;;;0.97;;
1004;SDS011;491;53.480;10.174;2023-07-20T09:28:11;4.10;;;1.00;;
1004;SDS011;491;53.480;10.174;2023-07-20T09:30:37;3.63;;;0.83;;
1004;SDS011;491;53.480;10.174;2023-07-20T09:33:05;3.23;;;0.40;;
1004;SDS011;491;53.480;10.174;2023-07-20T09:35:43;2.90;;;0.70;;
1004;SDS011;491;53.480;10.174;2023-07-20T09:38:08;2.87;;;0.80;;
1004;SDS011;491;53.480;10.174;2023-07-20T09:40:37;1.53;;;0.50;;
1004;SDS011;491;53.480;10.174;2023-07-20T09:43:04;3.37;;;0.43;;
1004;SDS011;491;53.480;10.174;2023-07-20T09:45:33;2.87;;;0.53;;
1004;SDS011;491;53.480;10.174;2023-07-20T09:48:04;2.00;;;0.37;;
1004;SDS011;491;53.480;10.174;2023-07-20T09:50:31;3.93;;;0.63;;
1004;SDS011;491;53.480;10.174;2023-07-20T09:52:57;3.03;;;0.50;;
1004;SDS011;491;53.480;10.174;2023-07-20T09:55:26;2.03;;;0.57;;
1004;SDS011;491;53.480;10.174;2023-07-20T09:57:54;5.23;;;1.33;;
1004;SDS011;491;53.480;10.174;2023-07-20T10:00:21;2.40;;;0.87;;
1004;SDS011;491;53.480;10.174;2023-07-20T10:02:46;3.50;;;0.90;;
1004;SDS011;491;53.480;10.174;2023-07-20T10:05:16;1.87;;;0.60;;
1004;SDS011;491;53.480;10.174;2023-07-20T10:07:44;4.07;;;0.93;;
1004;SDS011;491;53.480;10.174;2023-07-20T10:10:14;4.80;;;0.80;;
1004;SDS011;491;53.480;10.174;2023-07-20T10:12:41;3.73;;;0.63;;
1004;SDS011;491;53.480;10.174;2023-07-20T10:21:17;1.43;;;0.50;;
1004;SDS011;491;53.480;10.174;2023-07-20T10:23:44;1.20;;;0.27;;
1004;SDS011;491;53.480;10.174;2023-07-20T10:26:11;3.30;;;0.40;;
1004;SDS011;491;53.480;10.174;2023-07-20T10:28:42;1.37;;;0.40;;
1004;SDS011;491;53.480;10.174;2023-07-20T10:31:08;1.97;;;0.43;;
1004;SDS011;491;53.480;10.174;2023-07-20T10:33:37;3.30;;;0.53;;
1004;SDS011;491;53.480;10.174;2023-07-20T10:36:06;3.20;;;0.60;;
1004;SDS011;491;53.480;10.174;2023-07-20T10:41:19;3.50;;;0.40;;
1004;SDS011;491;53.480;10.174;2023-07-20T10:44:12;1.07;;;0.27;;
1004;SDS011;491;53.480;10.174;2023-07-20T10:49:04;2.27;;;0.40;;
1004;SDS011;491;53.480;10.174;2023-07-20T10:51:44;2.53;;;0.43;;
1004;SDS011;491;53.480;10.174;2023-07-20T10:56:42;2.67;;;0.30;;
1004;SDS011;491;53.480;10.174;2023-07-20T11:01:55;2.20;;;0.40;;
1004;SDS011;491;53.480;10.174;2023-07-20T11:04:46;1.93;;;0.20;;
1004;SDS011;491;53.480;10.174;2023-07-20T11:07:16;4.60;;;0.83;;
1004;SDS011;491;53.480;10.174;2023-07-20T11:09:42;2.50;;;0.30;;
1004;SDS011;491;53.480;10.174;2023-07-20T11:12:12;1.80;;;0.30;;
1004;SDS011;491;53.480;10.174;2023-07-20T11:17:14;1.57;;;0.20;;
1004;SDS011;491;53.480;10.174;2023-07-20T11:19:41;0.63;;;0.20;;
1004;SDS011;491;53.480;10.174;2023-07-20T11:22:06;1.47;;;0.20;;
1004;SDS011;491;53.480;10.174;2023-07-20T11:24:37;1.63;;;0.30;;
1004;SDS011;491;53.480;10.174;2023-07-20T11:27:04;3.23;;;0.30;;
1004;SDS011;491;53.480;10.174;2023-07-20T11:29:30;1.87;;;0.30;;
1004;SDS011;491;53.480;10.174;2023-07-20T11:31:58;1.40;;;0.23;;
1004;SDS011;491;53.480;10.174;2023-07-20T11:34:24;2.00;;;0.30;;
1004;SDS011;491;53.480;10.174;2023-07-20T11:36:50;0.87;;;0.20;;
1004;SDS011;491;53.480;10.174;2023-07-20T11:39:17;0.50;;;0.20;;
1004;SDS011;491;53.480;10.174;2023-07-20T11:41:47;0.57;;;0.20;;
1004;SDS011;491;53.480;10.174;2023-07-20T11:44:18;1.80;;;0.20;;
1004;SDS011;491;53.480;10.174;2023-07-20T11:46:44;1.80;;;0.20;;
1004;SDS011;491;53.480;10.174;2023-07-20T11:49:10;0.77;;;0.20;;
1004;SDS011;491;53.480;10.174;2023-07-20T11:51:36;1.73;;;0.20;;
1004;SDS011;491;53.480;10.174;2023-07-20T11:54:04;0.60;;;0.20;;
1004;SDS011;491;53.480;10.174;2023-07-20T11:56:33;2.00;;;0.20;;
1004;SDS011;491;53.480;10.174;2023-07-20T11:58:59;1.90;;;0.20;;
1004;SDS011;491;53.480;10.174;2023-07-20T12:01:26;1.07;;;0.20;;
1004;SDS011;491;53.480;10.174;2023-07-20T12:04:00;0.50;;;0.20;;
1004;SDS011;491;53.480;10.174;2023-07-20T12:06:28;1.57;;;0.50;;
1004;SDS011;491;53.480;10.174;2023-07-20T12:08:54;1.83;;;0.20;;
1004;SDS011;491;53.480;10.174;2023-07-20T12:11:34;2.47;;;0.30;;
1004;SDS011;491;53.480;10.174;2023-07-20T12:14:00;1.63;;;0.30;;
1004;SDS011;491;53.480;10.174;2023-07-20T12:16:27;0.90;;;0.30;;
1004;SDS011;491;53.480;10.174;2023-07-20T12:19:03;1.60;;;0.40;;
1004;SDS011;491;53.480;10.174;2023-07-20T12:21:34;0.97;;;0.20;;
1004;SDS011;491;53.480;10.174;2023-07-20T12:24:01;1.63;;;0.47;;
1004;SDS011;491;53.480;10.174;2023-07-20T12:26:28;0.60;;;0.20;;
1004;SDS011;491;53.480;10.174;2023-07-20T12:28:54;2.10;;;0.30;;
1004;SDS011;491;53.480;10.174;2023-07-20T12:31:20;1.97;;;0.37;;
1004;SDS011;491;53.480;10.174;2023-07-20T12:33:54;2.30;;;0.20;;
1004;SDS011;491;53.480;10.174;2023-07-20T12:36:23;2.70;;;0.40;;
1004;SDS011;491;53.480;10.174;2023-07-20T12:38:48;1.17;;;0.30;;
1004;SDS011;491;53.480;10.174;2023-07-20T12:41:14;1.77;;;0.20;;
1004;SDS011;491;53.480;10.174;2023-07-20T12:43:40;1.10;;;0.20;;
1004;SDS011;491;53.480;10.174;2023-07-20T12:46:06;2.23;;;0.40;;
1004;SDS011;491;53.480;10.174;2023-07-20T12:48:32;3.50;;;0.50;;
1004;SDS011;491;53.480;10.174;2023-07-20T12:50:58;3.00;;;0.30;;
1004;SDS011;491;53.480;10.174;2023-07-20T12:53:23;0.57;;;0.20;;
1004;SDS011;491;53.480;10.174;2023-07-20T12:55:49;1.47;;;0.30;;
1004;SDS011;491;53.480;10.174;2023-07-20T12:58:14;1.27;;;0.20;;
1004;SDS011;491;53.480;10.174;2023-07-20T13:00:40;2.37;;;0.30;;
1004;SDS011;491;53.480;10.174;2023-07-20T13:03:06;2.40;;;0.20;;
1004;SDS011;491;53.480;10.174;2023-07-20T13:05:33;0.80;;;0.20;;
1004;SDS011;491;53.480;10.174;2023-07-20T13:07:59;0.93;;;0.20;;
1004;SDS011;491;53.480;10.174;2023-07-20T13:10:28;1.50;;;0.20;;
1004;SDS011;491;53.480;10.174;2023-07-20T13:12:55;1.07;;;0.30;;
1004;SDS011;491;53.480;10.174;2023-07-20T13:15:30;2.70;;;0.30;;
1004;SDS011;491;53.480;10.174;2023-07-20T13:17:57;3.50;;;0.30;;
1004;SDS011;491;53.480;10.174;2023-07-20T13:20:23;1.60;;;0.20;;
1004;SDS011;491;53.480;10.174;2023-07-20T13:22:49;1.70;;;0.30;;
1004;SDS011;491;53.480;10.174;2023-07-20T13:25:14;1.40;;;0.20;;
1004;SDS011;491;53.480;10.174;2023-07-20T13:27:40;1.80;;;0.23;;
1004;SDS011;491;53.480;10.174;2023-07-20T13:30:06;2.00;;;0.30;;
1004;SDS011;491;53.480;10.174;2023-07-20T13:32:32;1.30;;;0.30;;
1004;SDS011;491;53.480;10.174;2023-07-20T13:34:58;2.03;;;0.60;;
1004;SDS011;491;53.480;10.174;2023-07-20T13:37:24;2.37;;;0.20;;
1004;SDS011;491;53.480;10.174;2023-07-20T13:39:50;2.10;;;0.20;;
1004;SDS011;491;53.480;10.174;2023-07-20T13:42:15;0.97;;;0.20;;
1004;SDS011;491;53.480;10.174;2023-07-20T13:44:42;2.30;;;0.40;;
1004;SDS011;491;53.480;10.174;2023-07-20T13:47:07;3.47;;;0.20;;
1004;SDS011;491;53.480;10.174;2023-07-20T13:49:33;1.87;;;0.20;;
1004;SDS011;491;53.480;10.174;2023-07-20T13:51:58;0.90;;;0.20;;
1004;SDS011;491;53.480;10.174;2023-07-20T13:54:24;1.30;;;0.20;;
1004;SDS011;491;53.480;10.174;2023-07-20T13:56:50;1.90;;;0.20;;
1004;SDS011;491;53.480;10.174;2023-07-20T13:59:16;1.40;;;0.20;;
1004;SDS011;491;53.480;10.174;2023-07-20T14:01:42;3.30;;;0.40;;
1004;SDS011;491;53.480;10.174;2023-07-20T14:04:17;1.43;;;0.20;;
1004;SDS011;491;53.480;10.174;2023-07-20T14:06:42;2.47;;;0.30;;
1004;SDS011;491;53.480;10.174;2023-07-20T14:09:08;1.77;;;0.20;;
1004;SDS011;491;53.480;10.174;2023-07-20T14:11:34;1.20;;;0.20;;
1004;SDS011;491;53.480;10.174;2023-07-20T14:14:00;1.17;;;0.23;;
1004;SDS011;491;53.480;10.174;2023-07-20T14:16:25;1.90;;;0.20;;
1004;SDS011;491;53.480;10.174;2023-07-20T14:18:51;2.30;;;0.20;;
1004;SDS011;491;53.480;10.174;2023-07-20T14:21:16;2.30;;;0.30;;
1004;SDS011;491;53.480;10.174;2023-07-20T14:23:46;1.97;;;0.60;;
1004;SDS011;491;53.480;10.174;2023-07-20T14:26:13;1.30;;;0.30;;
1004;SDS011;491;53.480;10.174;2023-07-20T14:28:39;1.30;;;0.20;;
1004;SDS011;491;53.480;10.174;2023-07-20T14:31:04;1.57;;;0.30;;
1004;SDS011;491;53.480;10.174;2023-07-20T14:33:30;1.53;;;0.40;;
1004;SDS011;491;53.480;10.174;2023-07-20T14:35:56;1.63;;;0.33;;
1004;SDS011;491;53.480;10.174;2023-07-20T14:38:21;1.50;;;0.30;;
1004;SDS011;491;53.480;10.174;2023-07-20T14:40:47;0.80;;;0.20;;
1004;SDS011;491;53.480;10.174;2023-07-20T14:43:12;1.07;;;0.20;;
1004;SDS011;491;53.480;10.174;2023-07-20T14:45:39;1.43;;;0.30;;
1004;SDS011;491;53.480;10.174;2023-07-20T14:48:05;2.00;;;0.20;;
1004;SDS011;491;53.480;10.174;2023-07-20T14:50:31;1.57;;;0.20;;
1004;SDS011;491;53.480;10.174;2023-07-20T14:52:56;1.80;;;0.33;;
1004;SDS011;491;53.480;10.174;2023-07-20T14:55:22;2.80;;;0.40;;
1004;SDS011;491;53.480;10.174;2023-07-20T14:57:48;2.13;;;0.40;;
1004;SDS011;491;53.480;10.174;2023-07-20T15:00:13;1.87;;;0.40;;
1004;SDS011;491;53.480;10.174;2023-07-20T15:02:40;1.10;;;0.20;;
1004;SDS011;491;53.480;10.174;2023-07-20T15:05:06;2.40;;;0.50;;
1004;SDS011;491;53.480;10.174;2023-07-20T15:07:32;2.57;;;0.43;;
1004;SDS011;491;53.480;10.174;2023-07-20T15:09:58;1.23;;;0.37;;
1004;SDS011;491;53.480;10.174;2023-07-20T15:12:23;3.90;;;0.40;;
1004;SDS011;491;53.480;10.174;2023-07-20T15:14:50;1.67;;;0.20;;
1004;SDS011;491;53.480;10.174;2023-07-20T15:17:34;2.40;;;0.40;;
1004;SDS011;491;53.480;10.174;2023-07-20T15:20:01;2.07;;;0.37;;
1004;SDS011;491;53.480;10.174;2023-07-20T15:22:30;2.90;;;0.30;;
1004;SDS011;491;53.480;10.174;2023-07-20T15:24:57;1.90;;;0.40;;
1004;SDS011;491;53.480;10.174;2023-07-20T15:27:22;1.23;;;0.30;;
1004;SDS011;491;53.480;10.174;2023-07-20T15:29:48;2.27;;;0.40;;
1004;SDS011;491;53.480;10.174;2023-07-20T15:32:14;0.63;;;0.20;;
1004;SDS011;491;53.480;10.174;2023-07-20T15:34:41;1.60;;;0.50;;
1004;SDS011;491;53.480;10.174;2023-07-20T15:37:07;6.43;;;0.53;;
1004;SDS011;491;53.480;10.174;2023-07-20T15:39:34;3.90;;;0.60;;
1004;SDS011;491;53.480;10.174;2023-07-20T15:41:59;5.03;;;0.63;;